sensor_id;sensor_type;location;lat;lon;timestamp;P1;durP1;ratioP1;P2;durP2;ratioP2
15297;SDS011;7750;48.796;9.026;2024-03-23T00:58:49;5.93;;;3.63;;
15297;SDS011;7750;48.796;9.026;2024-03-23T01:03:50;6.43;;;4.23;;
15297;SDS011;7750;48.796;9.026;2024-03-23T01:08:50;5.20;;;3.80;;
15297;SDS011;7750;48.796;9.026;2024-03-23T01:13:53;5.57;;;4.23;;
15297;SDS011;7750;48.796;9.026;2024-03-23T01:18:56;5.40;;;3.80;;
15297;SDS011;7750;48.796;9.026;2024-03-23T01:23:56;5.13;;;3.40;;
15297;SDS011;7750;48.796;9.026;2024-03-23T01:28:57;3.97;;;2.97;;
15297;SDS011;7750;48.796;9.026;2024-03-23T01:33:58;4.03;;;3.10;;
15297;SDS011;7750;48.796;9.026;2024-03-23T01:38:59;4.37;;;3.07;;
15297;SDS011;7750;48.796;9.026;2024-03-23T01:43:59;6.27;;;3.40;;
15297;SDS011;7750;48.796;9.026;2024-03-23T01:49:08;4.53;;;3.07;;
15297;SDS011;7750;48.796;9.026;2024-03-23T01:54:12;5.03;;;2.90;;
15297;SDS011;7750;48.796;9.026;2024-03-23T01:59:13;5.07;;;3.80;;
15297;SDS011;7750;48.796;9.026;2024-03-23T02:04:14;4.40;;;3.23;;
15297;SDS011;7750;48.796;9.026;2024-03-23T02:09:17;5.00;;;3.03;;
15297;SDS011;7750;48.796;9.026;2024-03-23T02:19:24;4.67;;;3.00;;
15297;SDS011;7750;48.796;9.026;2024-03-23T02:24:33;4.43;;;2.87;;
15297;SDS011;7750;48.796;9.026;2024-03-23T02:29:34;6.90;;;3.00;;
15297;SDS011;7750;48.796;9.026;2024-03-23T02:34:36;4.10;;;3.27;;
15297;SDS011;7750;48.796;9.026;2024-03-23T02:39:37;4.53;;;2.83;;
15297;SDS011;7750;48.796;9.026;2024-03-23T02:44:37;4.23;;;3.20;;
15297;SDS011;7750;48.796;9.026;2024-03-23T02:49:38;5.93;;;3.60;;
15297;SDS011;7750;48.796;9.026;2024-03-23T02:54:39;4.80;;;3.57;;
15297;SDS011;7750;48.796;9.026;2024-03-23T02:59:40;6.93;;;3.40;;
15297;SDS011;7750;48.796;9.026;2024-03-23T03:04:41;4.50;;;3.07;;
15297;SDS011;7750;48.796;9.026;2024-03-23T03:09:42;6.20;;;3.70;;
15297;SDS011;7750;48.796;9.026;2024-03-23T03:14:43;7.00;;;3.87;;
15297;SDS011;7750;48.796;9.026;2024-03-23T03:19:44;3.97;;;3.00;;
15297;SDS011;7750;48.796;9.026;2024-03-23T03:24:46;5.27;;;3.47;;
15297;SDS011;7750;48.796;9.026;2024-03-23T03:29:48;3.57;;;2.80;;
15297;SDS011;7750;48.796;9.026;2024-03-23T03:34:48;4.90;;;3.47;;
15297;SDS011;7750;48.796;9.026;2024-03-23T03:39:50;7.00;;;2.67;;
15297;SDS011;7750;48.796;9.026;2024-03-23T03:44:51;4.50;;;2.63;;
15297;SDS011;7750;48.796;9.026;2024-03-23T03:49:53;5.43;;;3.10;;
15297;SDS011;7750;48.796;9.026;2024-03-23T03:54:59;4.10;;;2.73;;
15297;SDS011;7750;48.796;9.026;2024-03-23T04:00:02;5.53;;;2.70;;
15297;SDS011;7750;48.796;9.026;2024-03-23T04:05:04;4.10;;;3.00;;
15297;SDS011;7750;48.796;9.026;2024-03-23T04:10:09;4.97;;;2.70;;
15297;SDS011;7750;48.796;9.026;2024-03-23T04:15:10;4.60;;;3.10;;
15297;SDS011;7750;48.796;9.026;2024-03-23T04:20:11;5.40;;;3.03;;
15297;SDS011;7750;48.796;9.026;2024-03-23T04:25:13;8.20;;;3.90;;
15297;SDS011;7750;48.796;9.026;2024-03-23T04:35:25;6.30;;;3.43;;
15297;SDS011;7750;48.796;9.026;2024-03-23T05:07:50;17.13;;;12.60;;
15297;SDS011;7750;48.796;9.026;2024-03-23T05:12:56;16.40;;;12.40;;
15297;SDS011;7750;48.796;9.026;2024-03-23T05:18:01;16.77;;;12.43;;
15297;SDS011;7750;48.796;9.026;2024-03-23T05:28:12;17.70;;;13.20;;
15297;SDS011;7750;48.796;9.026;2024-03-23T05:43:34;14.20;;;11.30;;
15297;SDS011;7750;48.796;9.026;2024-03-23T05:48:38;11.53;;;8.33;;
15297;SDS011;7750;48.796;9.026;2024-03-23T05:53:40;9.43;;;6.90;;
15297;SDS011;7750;48.796;9.026;2024-03-23T05:58:41;7.27;;;5.10;;
15297;SDS011;7750;48.796;9.026;2024-03-23T06:03:41;8.50;;;5.20;;
15297;SDS011;7750;48.796;9.026;2024-03-23T06:30:35;3.50;;;2.43;;
15297;SDS011;7750;48.796;9.026;2024-03-23T06:35:37;4.07;;;2.50;;
15297;SDS011;7750;48.796;9.026;2024-03-23T06:40:39;2.40;;;1.73;;
15297;SDS011;7750;48.796;9.026;2024-03-23T06:46:03;2.27;;;1.50;;
15297;SDS011;7750;48.796;9.026;2024-03-23T06:51:05;2.17;;;1.60;;
15297;SDS011;7750;48.796;9.026;2024-03-23T06:56:06;1.50;;;1.00;;
15297;SDS011;7750;48.796;9.026;2024-03-23T07:01:07;1.80;;;1.40;;
15297;SDS011;7750;48.796;9.026;2024-03-23T07:06:09;1.87;;;1.40;;
15297;SDS011;7750;48.796;9.026;2024-03-23T07:11:10;1.87;;;1.37;;
15297;SDS011;7750;48.796;9.026;2024-03-23T07:16:11;1.60;;;1.00;;
15297;SDS011;7750;48.796;9.026;2024-03-23T07:21:14;1.60;;;1.00;;
15297;SDS011;7750;48.796;9.026;2024-03-23T07:26:15;1.60;;;1.10;;
15297;SDS011;7750;48.796;9.026;2024-03-23T07:31:15;1.60;;;1.17;;
15297;SDS011;7750;48.796;9.026;2024-03-23T07:36:16;1.70;;;1.30;;
15297;SDS011;7750;48.796;9.026;2024-03-23T07:41:19;4.27;;;1.70;;
15297;SDS011;7750;48.796;9.026;2024-03-23T07:46:20;1.97;;;1.43;;
15297;SDS011;7750;48.796;9.026;2024-03-23T07:56:41;1.93;;;1.40;;
15297;SDS011;7750;48.796;9.026;2024-03-23T08:02:24;3.73;;;1.90;;
15297;SDS011;7750;48.796;9.026;2024-03-23T08:12:35;1.83;;;1.00;;
15297;SDS011;7750;48.796;9.026;2024-03-23T08:17:36;2.53;;;1.47;;
15297;SDS011;7750;48.796;9.026;2024-03-23T08:22:37;2.10;;;1.20;;
15297;SDS011;7750;48.796;9.026;2024-03-23T08:27:37;1.70;;;1.23;;
15297;SDS011;7750;48.796;9.026;2024-03-23T08:32:38;3.40;;;2.00;;
15297;SDS011;7750;48.796;9.026;2024-03-23T08:37:38;3.43;;;2.20;;
15297;SDS011;7750;48.796;9.026;2024-03-23T08:42:39;2.80;;;2.20;;
15297;SDS011;7750;48.796;9.026;2024-03-23T08:47:40;5.07;;;2.20;;
15297;SDS011;7750;48.796;9.026;2024-03-23T08:52:40;3.20;;;2.10;;
15297;SDS011;7750;48.796;9.026;2024-03-23T08:57:41;3.40;;;2.13;;
15297;SDS011;7750;48.796;9.026;2024-03-23T09:02:41;7.17;;;3.27;;
15297;SDS011;7750;48.796;9.026;2024-03-23T09:07:42;4.87;;;2.67;;
15297;SDS011;7750;48.796;9.026;2024-03-23T09:12:42;6.30;;;2.63;;
15297;SDS011;7750;48.796;9.026;2024-03-23T09:17:43;6.10;;;3.60;;
15297;SDS011;7750;48.796;9.026;2024-03-23T09:22:43;7.90;;;4.03;;
15297;SDS011;7750;48.796;9.026;2024-03-23T09:27:47;7.33;;;3.70;;
15297;SDS011;7750;48.796;9.026;2024-03-23T09:32:48;7.80;;;4.07;;
15297;SDS011;7750;48.796;9.026;2024-03-23T09:37:48;7.97;;;3.60;;
15297;SDS011;7750;48.796;9.026;2024-03-23T09:42:49;9.07;;;4.20;;
15297;SDS011;7750;48.796;9.026;2024-03-23T09:47:50;9.73;;;4.63;;
15297;SDS011;7750;48.796;9.026;2024-03-23T09:52:51;12.90;;;5.10;;
15297;SDS011;7750;48.796;9.026;2024-03-23T09:57:52;12.60;;;5.23;;
15297;SDS011;7750;48.796;9.026;2024-03-23T10:02:55;9.20;;;4.77;;
15297;SDS011;7750;48.796;9.026;2024-03-23T10:07:56;7.80;;;4.20;;
15297;SDS011;7750;48.796;9.026;2024-03-23T10:12:56;8.30;;;4.50;;
15297;SDS011;7750;48.796;9.026;2024-03-23T10:17:57;12.47;;;5.27;;
15297;SDS011;7750;48.796;9.026;2024-03-23T10:22:58;18.00;;;4.43;;
15297;SDS011;7750;48.796;9.026;2024-03-23T10:27:59;9.83;;;4.30;;
15297;SDS011;7750;48.796;9.026;2024-03-23T10:33:07;7.27;;;3.70;;
15297;SDS011;7750;48.796;9.026;2024-03-23T10:38:11;9.30;;;4.47;;
15297;SDS011;7750;48.796;9.026;2024-03-23T10:43:14;9.33;;;4.47;;
15297;SDS011;7750;48.796;9.026;2024-03-23T10:48:16;8.40;;;4.23;;
15297;SDS011;7750;48.796;9.026;2024-03-23T10:53:17;6.53;;;3.47;;
15297;SDS011;7750;48.796;9.026;2024-03-23T10:58:23;5.30;;;2.80;;
15297;SDS011;7750;48.796;9.026;2024-03-23T11:03:45;5.03;;;3.20;;
15297;SDS011;7750;48.796;9.026;2024-03-23T11:08:46;5.67;;;3.30;;
15297;SDS011;7750;48.796;9.026;2024-03-23T11:13:47;5.30;;;3.20;;
15297;SDS011;7750;48.796;9.026;2024-03-23T11:18:49;6.87;;;3.93;;
15297;SDS011;7750;48.796;9.026;2024-03-23T11:23:51;6.80;;;3.00;;
15297;SDS011;7750;48.796;9.026;2024-03-23T11:29:08;4.30;;;2.80;;
15297;SDS011;7750;48.796;9.026;2024-03-23T11:34:09;4.80;;;2.43;;
15297;SDS011;7750;48.796;9.026;2024-03-23T11:39:17;4.90;;;2.23;;
15297;SDS011;7750;48.796;9.026;2024-03-23T11:44:25;5.87;;;2.53;;
15297;SDS011;7750;48.796;9.026;2024-03-23T11:49:27;5.10;;;2.53;;
15297;SDS011;7750;48.796;9.026;2024-03-23T11:54:29;8.70;;;2.50;;
15297;SDS011;7750;48.796;9.026;2024-03-23T11:59:31;5.50;;;2.33;;
15297;SDS011;7750;48.796;9.026;2024-03-23T12:04:35;6.97;;;2.50;;
15297;SDS011;7750;48.796;9.026;2024-03-23T12:09:36;6.10;;;2.50;;
15297;SDS011;7750;48.796;9.026;2024-03-23T12:14:37;9.67;;;3.27;;
15297;SDS011;7750;48.796;9.026;2024-03-23T12:19:38;14.23;;;2.77;;
15297;SDS011;7750;48.796;9.026;2024-03-23T12:29:50;6.13;;;2.90;;
15297;SDS011;7750;48.796;9.026;2024-03-23T12:34:52;4.67;;;2.70;;
15297;SDS011;7750;48.796;9.026;2024-03-23T12:39:52;7.53;;;2.87;;
15297;SDS011;7750;48.796;9.026;2024-03-23T12:44:53;7.47;;;2.70;;
15297;SDS011;7750;48.796;9.026;2024-03-23T12:49:55;6.90;;;3.23;;
15297;SDS011;7750;48.796;9.026;2024-03-23T12:54:56;8.37;;;3.60;;
15297;SDS011;7750;48.796;9.026;2024-03-23T12:59:56;10.30;;;3.40;;
15297;SDS011;7750;48.796;9.026;2024-03-23T13:04:57;6.00;;;3.00;;
15297;SDS011;7750;48.796;9.026;2024-03-23T13:09:58;12.23;;;3.70;;
15297;SDS011;7750;48.796;9.026;2024-03-23T13:14:59;11.40;;;3.43;;
15297;SDS011;7750;48.796;9.026;2024-03-23T13:20:00;7.47;;;3.00;;
15297;SDS011;7750;48.796;9.026;2024-03-23T13:25:00;7.40;;;2.80;;
15297;SDS011;7750;48.796;9.026;2024-03-23T13:30:01;5.70;;;2.70;;
15297;SDS011;7750;48.796;9.026;2024-03-23T13:35:04;7.73;;;2.90;;
15297;SDS011;7750;48.796;9.026;2024-03-23T13:40:06;9.30;;;3.07;;
15297;SDS011;7750;48.796;9.026;2024-03-23T13:45:08;4.20;;;2.20;;
15297;SDS011;7750;48.796;9.026;2024-03-23T13:50:11;7.47;;;2.60;;
15297;SDS011;7750;48.796;9.026;2024-03-23T13:55:12;6.23;;;2.87;;
15297;SDS011;7750;48.796;9.026;2024-03-23T14:00:15;7.27;;;2.50;;
15297;SDS011;7750;48.796;9.026;2024-03-23T14:05:18;8.70;;;2.10;;
15297;SDS011;7750;48.796;9.026;2024-03-23T14:10:18;3.90;;;2.07;;
15297;SDS011;7750;48.796;9.026;2024-03-23T14:15:22;3.40;;;1.40;;
15297;SDS011;7750;48.796;9.026;2024-03-23T14:20:22;4.60;;;1.60;;
15297;SDS011;7750;48.796;9.026;2024-03-23T14:25:23;3.37;;;1.60;;
15297;SDS011;7750;48.796;9.026;2024-03-23T14:30:27;3.90;;;2.10;;
15297;SDS011;7750;48.796;9.026;2024-03-23T14:35:28;4.90;;;1.90;;
15297;SDS011;7750;48.796;9.026;2024-03-23T14:40:29;6.70;;;2.00;;
15297;SDS011;7750;48.796;9.026;2024-03-23T14:45:29;4.33;;;1.83;;
15297;SDS011;7750;48.796;9.026;2024-03-23T14:50:30;5.70;;;2.20;;
15297;SDS011;7750;48.796;9.026;2024-03-23T14:55:30;3.23;;;2.10;;
15297;SDS011;7750;48.796;9.026;2024-03-23T15:00:31;5.60;;;2.00;;
15297;SDS011;7750;48.796;9.026;2024-03-23T15:05:31;4.47;;;1.73;;
15297;SDS011;7750;48.796;9.026;2024-03-23T15:10:32;4.37;;;2.03;;
15297;SDS011;7750;48.796;9.026;2024-03-23T15:15:37;5.73;;;1.90;;
15297;SDS011;7750;48.796;9.026;2024-03-23T15:20:56;2.87;;;1.40;;
15297;SDS011;7750;48.796;9.026;2024-03-23T15:26:09;4.53;;;1.40;;
15297;SDS011;7750;48.796;9.026;2024-03-23T15:31:10;3.93;;;1.80;;
15297;SDS011;7750;48.796;9.026;2024-03-23T15:36:11;4.00;;;1.40;;
15297;SDS011;7750;48.796;9.026;2024-03-23T15:41:12;5.23;;;1.53;;
15297;SDS011;7750;48.796;9.026;2024-03-23T15:46:12;6.33;;;1.70;;
15297;SDS011;7750;48.796;9.026;2024-03-23T15:51:14;5.23;;;1.97;;
15297;SDS011;7750;48.796;9.026;2024-03-23T15:56:15;6.27;;;2.30;;
15297;SDS011;7750;48.796;9.026;2024-03-23T16:01:15;3.83;;;1.57;;
15297;SDS011;7750;48.796;9.026;2024-03-23T16:06:16;4.23;;;2.23;;
15297;SDS011;7750;48.796;9.026;2024-03-23T16:11:17;3.40;;;1.97;;
15297;SDS011;7750;48.796;9.026;2024-03-23T16:16:18;3.20;;;1.50;;
15297;SDS011;7750;48.796;9.026;2024-03-23T16:21:22;4.20;;;1.87;;
15297;SDS011;7750;48.796;9.026;2024-03-23T16:26:23;4.20;;;1.77;;
15297;SDS011;7750;48.796;9.026;2024-03-23T16:31:24;3.83;;;1.43;;
15297;SDS011;7750;48.796;9.026;2024-03-23T16:36:24;3.00;;;1.67;;
15297;SDS011;7750;48.796;9.026;2024-03-23T16:41:26;2.20;;;1.33;;
15297;SDS011;7750;48.796;9.026;2024-03-23T16:46:27;3.70;;;1.50;;
15297;SDS011;7750;48.796;9.026;2024-03-23T16:51:28;3.67;;;1.60;;
15297;SDS011;7750;48.796;9.026;2024-03-23T16:56:28;5.23;;;2.07;;
15297;SDS011;7750;48.796;9.026;2024-03-23T17:01:29;3.20;;;1.77;;
15297;SDS011;7750;48.796;9.026;2024-03-23T17:06:30;3.67;;;2.20;;
15297;SDS011;7750;48.796;9.026;2024-03-23T17:11:30;4.37;;;1.90;;
15297;SDS011;7750;48.796;9.026;2024-03-23T17:16:31;4.60;;;1.60;;
15297;SDS011;7750;48.796;9.026;2024-03-23T17:21:32;2.67;;;1.87;;
15297;SDS011;7750;48.796;9.026;2024-03-23T17:26:34;3.53;;;1.90;;
15297;SDS011;7750;48.796;9.026;2024-03-23T17:31:35;3.10;;;1.73;;
15297;SDS011;7750;48.796;9.026;2024-03-23T17:36:38;2.60;;;1.90;;
15297;SDS011;7750;48.796;9.026;2024-03-23T17:41:39;2.70;;;1.80;;
15297;SDS011;7750;48.796;9.026;2024-03-23T17:46:39;4.23;;;1.93;;
15297;SDS011;7750;48.796;9.026;2024-03-23T17:51:40;3.03;;;1.60;;
15297;SDS011;7750;48.796;9.026;2024-03-23T17:56:40;2.53;;;1.43;;
15297;SDS011;7750;48.796;9.026;2024-03-23T18:01:41;3.93;;;2.27;;
15297;SDS011;7750;48.796;9.026;2024-03-23T18:06:42;2.80;;;1.97;;
15297;SDS011;7750;48.796;9.026;2024-03-23T18:11:42;5.57;;;2.03;;
15297;SDS011;7750;48.796;9.026;2024-03-23T18:16:43;2.90;;;1.67;;
15297;SDS011;7750;48.796;9.026;2024-03-23T18:21:44;1.97;;;1.47;;
15297;SDS011;7750;48.796;9.026;2024-03-23T18:26:45;2.63;;;1.73;;
15297;SDS011;7750;48.796;9.026;2024-03-23T18:31:45;3.77;;;2.03;;
15297;SDS011;7750;48.796;9.026;2024-03-23T18:36:46;6.80;;;2.60;;
15297;SDS011;7750;48.796;9.026;2024-03-23T18:41:46;8.27;;;4.53;;
15297;SDS011;7750;48.796;9.026;2024-03-23T18:46:47;4.43;;;3.10;;
15297;SDS011;7750;48.796;9.026;2024-03-23T18:51:48;7.17;;;3.37;;
15297;SDS011;7750;48.796;9.026;2024-03-23T18:56:48;5.83;;;2.23;;
15297;SDS011;7750;48.796;9.026;2024-03-23T19:01:49;4.40;;;2.30;;
15297;SDS011;7750;48.796;9.026;2024-03-23T19:06:49;2.57;;;2.03;;
15297;SDS011;7750;48.796;9.026;2024-03-23T19:17:00;4.60;;;2.70;;
15297;SDS011;7750;48.796;9.026;2024-03-23T19:22:01;3.47;;;2.10;;
15297;SDS011;7750;48.796;9.026;2024-03-23T19:27:02;3.50;;;2.10;;
15297;SDS011;7750;48.796;9.026;2024-03-23T19:32:04;3.17;;;2.50;;
15297;SDS011;7750;48.796;9.026;2024-03-23T19:37:05;3.47;;;1.80;;
15297;SDS011;7750;48.796;9.026;2024-03-23T19:42:06;3.83;;;2.43;;
15297;SDS011;7750;48.796;9.026;2024-03-23T19:47:07;4.30;;;3.07;;
15297;SDS011;7750;48.796;9.026;2024-03-23T19:57:18;10.30;;;3.60;;
15297;SDS011;7750;48.796;9.026;2024-03-23T20:02:19;4.80;;;2.70;;
15297;SDS011;7750;48.796;9.026;2024-03-23T20:07:19;3.40;;;2.30;;
15297;SDS011;7750;48.796;9.026;2024-03-23T20:12:20;3.50;;;2.10;;
15297;SDS011;7750;48.796;9.026;2024-03-23T20:17:22;12.10;;;2.70;;
15297;SDS011;7750;48.796;9.026;2024-03-23T20:22:26;3.37;;;2.50;;
15297;SDS011;7750;48.796;9.026;2024-03-23T20:27:28;2.70;;;1.70;;
15297;SDS011;7750;48.796;9.026;2024-03-23T20:32:30;4.27;;;2.53;;
15297;SDS011;7750;48.796;9.026;2024-03-23T20:37:31;5.27;;;3.30;;
15297;SDS011;7750;48.796;9.026;2024-03-23T20:42:32;4.40;;;3.13;;
15297;SDS011;7750;48.796;9.026;2024-03-23T20:58:44;3.97;;;2.27;;
15297;SDS011;7750;48.796;9.026;2024-03-23T21:03:46;4.43;;;2.47;;
15297;SDS011;7750;48.796;9.026;2024-03-23T21:08:47;3.73;;;2.00;;
15297;SDS011;7750;48.796;9.026;2024-03-23T21:29:50;2.00;;;1.60;;
15297;SDS011;7750;48.796;9.026;2024-03-23T21:34:51;3.30;;;2.00;;
15297;SDS011;7750;48.796;9.026;2024-03-23T21:39:52;10.93;;;2.63;;
15297;SDS011;7750;48.796;9.026;2024-03-23T21:55:06;6.93;;;2.30;;
15297;SDS011;7750;48.796;9.026;2024-03-23T22:10:38;4.30;;;2.10;;
15297;SDS011;7750;48.796;9.026;2024-03-23T22:26:18;5.40;;;2.63;;
15297;SDS011;7750;48.796;9.026;2024-03-23T22:31:23;3.40;;;1.83;;
15297;SDS011;7750;48.796;9.026;2024-03-23T22:47:03;6.27;;;2.27;;
15297;SDS011;7750;48.796;9.026;2024-03-23T22:52:05;5.60;;;2.17;;
15297;SDS011;7750;48.796;9.026;2024-03-23T22:57:12;3.23;;;1.90;;
15297;SDS011;7750;48.796;9.026;2024-03-23T23:07:23;3.07;;;1.90;;
15297;SDS011;7750;48.796;9.026;2024-03-23T23:33:09;2.70;;;1.63;;
15297;SDS011;7750;48.796;9.026;2024-03-23T23:54:46;3.70;;;1.70;;
15297;SDS011;7750;48.796;9.026;2024-03-23T23:59:59;2.90;;;1.70;;
